sensor_id;sensor_type;location;lat;lon;timestamp;P1;durP1;ratioP1;P2;durP2;ratioP2
9950;SDS011;24074;49.254;6.702;2024-01-06T00:01:36;7.37;;;4.87;;
9950;SDS011;24074;49.254;6.702;2024-01-06T00:04:02;10.00;;;4.53;;
9950;SDS011;24074;49.254;6.702;2024-01-06T00:06:28;10.40;;;4.80;;
9950;SDS011;24074;49.254;6.702;2024-01-06T00:08:53;7.47;;;4.10;;
9950;SDS011;24074;49.254;6.702;2024-01-06T00:11:20;6.43;;;3.60;;
9950;SDS011;24074;49.254;6.702;2024-01-06T00:13:46;6.63;;;4.07;;
9950;SDS011;24074;49.254;6.702;2024-01-06T00:16:12;11.70;;;4.23;;
9950;SDS011;24074;49.254;6.702;2024-01-06T00:18:37;6.27;;;3.70;;
9950;SDS011;24074;49.254;6.702;2024-01-06T00:21:03;6.73;;;3.33;;
9950;SDS011;24074;49.254;6.702;2024-01-06T00:23:29;9.47;;;3.93;;
9950;SDS011;24074;49.254;6.702;2024-01-06T00:25:55;7.87;;;4.00;;
9950;SDS011;24074;49.254;6.702;2024-01-06T00:28:21;6.27;;;4.03;;
9950;SDS011;24074;49.254;6.702;2024-01-06T00:30:46;6.47;;;3.97;;
9950;SDS011;24074;49.254;6.702;2024-01-06T00:33:12;4.77;;;3.37;;
9950;SDS011;24074;49.254;6.702;2024-01-06T00:35:37;5.07;;;3.57;;
9950;SDS011;24074;49.254;6.702;2024-01-06T00:38:03;7.03;;;3.47;;
9950;SDS011;24074;49.254;6.702;2024-01-06T00:40:29;7.33;;;4.20;;
9950;SDS011;24074;49.254;6.702;2024-01-06T00:42:54;7.67;;;3.37;;
9950;SDS011;24074;49.254;6.702;2024-01-06T00:45:20;6.37;;;3.60;;
9950;SDS011;24074;49.254;6.702;2024-01-06T00:47:46;5.97;;;3.50;;
9950;SDS011;24074;49.254;6.702;2024-01-06T00:50:11;6.43;;;3.50;;
9950;SDS011;24074;49.254;6.702;2024-01-06T00:52:37;7.17;;;3.30;;
9950;SDS011;24074;49.254;6.702;2024-01-06T00:55:03;8.37;;;3.67;;
9950;SDS011;24074;49.254;6.702;2024-01-06T00:57:29;5.73;;;3.53;;
9950;SDS011;24074;49.254;6.702;2024-01-06T00:59:54;7.03;;;3.47;;
9950;SDS011;24074;49.254;6.702;2024-01-06T01:02:20;6.47;;;3.40;;
9950;SDS011;24074;49.254;6.702;2024-01-06T01:04:46;6.67;;;3.37;;
9950;SDS011;24074;49.254;6.702;2024-01-06T01:07:12;7.47;;;3.30;;
9950;SDS011;24074;49.254;6.702;2024-01-06T01:09:37;7.23;;;3.30;;
9950;SDS011;24074;49.254;6.702;2024-01-06T01:12:03;3.93;;;3.20;;
9950;SDS011;24074;49.254;6.702;2024-01-06T01:14:29;8.50;;;3.40;;
9950;SDS011;24074;49.254;6.702;2024-01-06T01:16:54;5.50;;;2.80;;
9950;SDS011;24074;49.254;6.702;2024-01-06T01:19:20;7.47;;;3.43;;
9950;SDS011;24074;49.254;6.702;2024-01-06T01:21:46;6.93;;;3.53;;
9950;SDS011;24074;49.254;6.702;2024-01-06T01:24:11;5.87;;;3.40;;
9950;SDS011;24074;49.254;6.702;2024-01-06T01:26:37;7.17;;;3.47;;
9950;SDS011;24074;49.254;6.702;2024-01-06T01:29:02;4.97;;;3.17;;
9950;SDS011;24074;49.254;6.702;2024-01-06T01:31:28;5.07;;;3.13;;
9950;SDS011;24074;49.254;6.702;2024-01-06T01:33:53;6.80;;;3.30;;
9950;SDS011;24074;49.254;6.702;2024-01-06T01:36:19;7.57;;;2.90;;
9950;SDS011;24074;49.254;6.702;2024-01-06T01:38:44;4.30;;;2.67;;
9950;SDS011;24074;49.254;6.702;2024-01-06T01:41:10;7.57;;;3.20;;
9950;SDS011;24074;49.254;6.702;2024-01-06T01:43:36;5.77;;;2.87;;
9950;SDS011;24074;49.254;6.702;2024-01-06T01:46:01;5.13;;;3.03;;
9950;SDS011;24074;49.254;6.702;2024-01-06T01:48:27;6.03;;;3.23;;
9950;SDS011;24074;49.254;6.702;2024-01-06T01:50:53;5.67;;;3.00;;
9950;SDS011;24074;49.254;6.702;2024-01-06T01:53:19;4.67;;;3.40;;
9950;SDS011;24074;49.254;6.702;2024-01-06T01:55:45;7.03;;;3.20;;
9950;SDS011;24074;49.254;6.702;2024-01-06T01:58:12;7.03;;;3.00;;
9950;SDS011;24074;49.254;6.702;2024-01-06T02:00:40;9.43;;;3.20;;
9950;SDS011;24074;49.254;6.702;2024-01-06T02:03:06;6.13;;;3.13;;
9950;SDS011;24074;49.254;6.702;2024-01-06T02:05:34;6.97;;;3.50;;
9950;SDS011;24074;49.254;6.702;2024-01-06T02:07:59;8.90;;;3.40;;
9950;SDS011;24074;49.254;6.702;2024-01-06T02:10:25;5.53;;;3.50;;
9950;SDS011;24074;49.254;6.702;2024-01-06T02:12:51;7.47;;;3.37;;
9950;SDS011;24074;49.254;6.702;2024-01-06T02:15:17;7.13;;;3.43;;
9950;SDS011;24074;49.254;6.702;2024-01-06T02:17:43;4.50;;;3.20;;
9950;SDS011;24074;49.254;6.702;2024-01-06T02:20:09;6.20;;;3.17;;
9950;SDS011;24074;49.254;6.702;2024-01-06T02:22:37;4.07;;;3.20;;
9950;SDS011;24074;49.254;6.702;2024-01-06T02:25:06;5.83;;;3.53;;
9950;SDS011;24074;49.254;6.702;2024-01-06T02:27:37;6.63;;;3.47;;
9950;SDS011;24074;49.254;6.702;2024-01-06T02:30:06;5.70;;;3.37;;
9950;SDS011;24074;49.254;6.702;2024-01-06T02:32:32;8.40;;;3.70;;
9950;SDS011;24074;49.254;6.702;2024-01-06T02:34:58;8.03;;;3.70;;
9950;SDS011;24074;49.254;6.702;2024-01-06T02:37:23;5.03;;;3.37;;
9950;SDS011;24074;49.254;6.702;2024-01-06T02:39:49;6.10;;;3.27;;
9950;SDS011;24074;49.254;6.702;2024-01-06T02:42:14;4.83;;;3.50;;
9950;SDS011;24074;49.254;6.702;2024-01-06T02:44:41;6.70;;;3.43;;
9950;SDS011;24074;49.254;6.702;2024-01-06T02:47:06;6.90;;;3.47;;
9950;SDS011;24074;49.254;6.702;2024-01-06T02:49:32;10.40;;;3.80;;
9950;SDS011;24074;49.254;6.702;2024-01-06T02:51:57;6.50;;;3.50;;
9950;SDS011;24074;49.254;6.702;2024-01-06T02:54:23;7.07;;;3.37;;
9950;SDS011;24074;49.254;6.702;2024-01-06T02:56:48;5.33;;;3.27;;
9950;SDS011;24074;49.254;6.702;2024-01-06T02:59:14;7.47;;;3.60;;
9950;SDS011;24074;49.254;6.702;2024-01-06T03:01:39;5.03;;;3.87;;
9950;SDS011;24074;49.254;6.702;2024-01-06T03:04:05;6.97;;;4.43;;
9950;SDS011;24074;49.254;6.702;2024-01-06T03:06:31;9.53;;;3.93;;
9950;SDS011;24074;49.254;6.702;2024-01-06T03:08:56;7.40;;;4.33;;
9950;SDS011;24074;49.254;6.702;2024-01-06T03:11:22;6.83;;;3.70;;
9950;SDS011;24074;49.254;6.702;2024-01-06T03:13:47;7.10;;;3.77;;
9950;SDS011;24074;49.254;6.702;2024-01-06T03:16:13;5.67;;;3.90;;
9950;SDS011;24074;49.254;6.702;2024-01-06T03:18:38;6.27;;;3.73;;
9950;SDS011;24074;49.254;6.702;2024-01-06T03:21:04;5.93;;;3.70;;
9950;SDS011;24074;49.254;6.702;2024-01-06T03:23:29;6.40;;;3.77;;
9950;SDS011;24074;49.254;6.702;2024-01-06T03:25:55;7.27;;;4.03;;
9950;SDS011;24074;49.254;6.702;2024-01-06T03:28:21;6.40;;;4.03;;
9950;SDS011;24074;49.254;6.702;2024-01-06T03:30:46;6.93;;;4.17;;
9950;SDS011;24074;49.254;6.702;2024-01-06T03:33:12;8.67;;;4.23;;
9950;SDS011;24074;49.254;6.702;2024-01-06T03:35:38;7.30;;;3.73;;
9950;SDS011;24074;49.254;6.702;2024-01-06T03:38:03;5.83;;;4.33;;
9950;SDS011;24074;49.254;6.702;2024-01-06T03:40:29;8.93;;;4.07;;
9950;SDS011;24074;49.254;6.702;2024-01-06T03:42:54;8.10;;;4.30;;
9950;SDS011;24074;49.254;6.702;2024-01-06T03:45:20;7.33;;;4.43;;
9950;SDS011;24074;49.254;6.702;2024-01-06T03:47:45;5.80;;;4.03;;
9950;SDS011;24074;49.254;6.702;2024-01-06T03:50:11;7.47;;;3.83;;
9950;SDS011;24074;49.254;6.702;2024-01-06T03:52:37;5.07;;;3.63;;
9950;SDS011;24074;49.254;6.702;2024-01-06T03:55:03;6.67;;;3.87;;
9950;SDS011;24074;49.254;6.702;2024-01-06T03:57:30;4.70;;;4.10;;
9950;SDS011;24074;49.254;6.702;2024-01-06T03:59:55;8.30;;;4.33;;
9950;SDS011;24074;49.254;6.702;2024-01-06T04:02:21;6.80;;;3.70;;
9950;SDS011;24074;49.254;6.702;2024-01-06T04:04:46;7.07;;;3.83;;
9950;SDS011;24074;49.254;6.702;2024-01-06T04:07:12;6.63;;;4.00;;
9950;SDS011;24074;49.254;6.702;2024-01-06T04:09:37;6.57;;;4.27;;
9950;SDS011;24074;49.254;6.702;2024-01-06T04:12:06;7.43;;;4.47;;
9950;SDS011;24074;49.254;6.702;2024-01-06T04:14:32;6.70;;;3.97;;
9950;SDS011;24074;49.254;6.702;2024-01-06T04:16:57;9.03;;;4.20;;
9950;SDS011;24074;49.254;6.702;2024-01-06T04:19:23;6.30;;;4.50;;
9950;SDS011;24074;49.254;6.702;2024-01-06T04:21:49;5.53;;;4.50;;
9950;SDS011;24074;49.254;6.702;2024-01-06T04:24:15;6.30;;;4.37;;
9950;SDS011;24074;49.254;6.702;2024-01-06T04:26:41;6.83;;;4.80;;
9950;SDS011;24074;49.254;6.702;2024-01-06T04:29:09;8.57;;;4.80;;
9950;SDS011;24074;49.254;6.702;2024-01-06T04:31:35;6.07;;;5.13;;
9950;SDS011;24074;49.254;6.702;2024-01-06T04:34:01;8.70;;;4.97;;
9950;SDS011;24074;49.254;6.702;2024-01-06T04:36:28;8.83;;;5.47;;
9950;SDS011;24074;49.254;6.702;2024-01-06T04:38:53;7.10;;;5.37;;
9950;SDS011;24074;49.254;6.702;2024-01-06T04:41:19;6.63;;;4.83;;
9950;SDS011;24074;49.254;6.702;2024-01-06T04:43:45;6.30;;;4.50;;
9950;SDS011;24074;49.254;6.702;2024-01-06T04:46:11;5.50;;;4.97;;
9950;SDS011;24074;49.254;6.702;2024-01-06T04:48:36;7.27;;;4.70;;
9950;SDS011;24074;49.254;6.702;2024-01-06T04:51:03;8.30;;;5.20;;
9950;SDS011;24074;49.254;6.702;2024-01-06T04:53:28;8.07;;;5.43;;
9950;SDS011;24074;49.254;6.702;2024-01-06T04:55:54;8.07;;;4.77;;
9950;SDS011;24074;49.254;6.702;2024-01-06T04:58:20;6.30;;;4.93;;
9950;SDS011;24074;49.254;6.702;2024-01-06T05:00:45;7.13;;;4.93;;
9950;SDS011;24074;49.254;6.702;2024-01-06T05:03:11;8.50;;;5.30;;
9950;SDS011;24074;49.254;6.702;2024-01-06T05:05:36;6.60;;;5.10;;
9950;SDS011;24074;49.254;6.702;2024-01-06T05:08:02;7.40;;;4.90;;
9950;SDS011;24074;49.254;6.702;2024-01-06T05:10:28;7.80;;;5.17;;
9950;SDS011;24074;49.254;6.702;2024-01-06T05:12:53;7.47;;;4.90;;
9950;SDS011;24074;49.254;6.702;2024-01-06T05:15:19;7.70;;;5.63;;
9950;SDS011;24074;49.254;6.702;2024-01-06T05:17:45;8.33;;;5.40;;
9950;SDS011;24074;49.254;6.702;2024-01-06T05:20:10;6.67;;;5.23;;
9950;SDS011;24074;49.254;6.702;2024-01-06T05:22:36;6.87;;;4.90;;
9950;SDS011;24074;49.254;6.702;2024-01-06T05:25:01;6.73;;;5.00;;
9950;SDS011;24074;49.254;6.702;2024-01-06T05:27:28;8.53;;;5.20;;
9950;SDS011;24074;49.254;6.702;2024-01-06T05:29:53;7.90;;;5.43;;
9950;SDS011;24074;49.254;6.702;2024-01-06T05:32:19;7.37;;;5.07;;
9950;SDS011;24074;49.254;6.702;2024-01-06T05:34:45;8.17;;;5.10;;
9950;SDS011;24074;49.254;6.702;2024-01-06T05:37:10;8.13;;;5.03;;
9950;SDS011;24074;49.254;6.702;2024-01-06T05:39:39;8.57;;;5.43;;
9950;SDS011;24074;49.254;6.702;2024-01-06T05:42:05;8.87;;;5.30;;
9950;SDS011;24074;49.254;6.702;2024-01-06T05:44:34;8.57;;;5.10;;
9950;SDS011;24074;49.254;6.702;2024-01-06T05:47:01;5.10;;;4.40;;
9950;SDS011;24074;49.254;6.702;2024-01-06T05:49:27;6.30;;;4.83;;
9950;SDS011;24074;49.254;6.702;2024-01-06T05:51:52;5.97;;;4.90;;
9950;SDS011;24074;49.254;6.702;2024-01-06T05:54:18;5.87;;;4.77;;
9950;SDS011;24074;49.254;6.702;2024-01-06T05:56:44;10.47;;;4.93;;
9950;SDS011;24074;49.254;6.702;2024-01-06T05:59:09;8.03;;;5.00;;
9950;SDS011;24074;49.254;6.702;2024-01-06T06:01:35;6.57;;;4.40;;
9950;SDS011;24074;49.254;6.702;2024-01-06T06:04:00;9.30;;;5.10;;
9950;SDS011;24074;49.254;6.702;2024-01-06T06:06:26;5.73;;;4.47;;
9950;SDS011;24074;49.254;6.702;2024-01-06T06:08:52;7.20;;;4.40;;
9950;SDS011;24074;49.254;6.702;2024-01-06T06:11:17;5.13;;;4.57;;
9950;SDS011;24074;49.254;6.702;2024-01-06T06:13:43;6.87;;;4.40;;
9950;SDS011;24074;49.254;6.702;2024-01-06T06:16:09;5.37;;;4.03;;
9950;SDS011;24074;49.254;6.702;2024-01-06T06:18:37;6.60;;;4.80;;
9950;SDS011;24074;49.254;6.702;2024-01-06T06:21:03;6.63;;;4.40;;
9950;SDS011;24074;49.254;6.702;2024-01-06T06:23:29;8.43;;;4.33;;
9950;SDS011;24074;49.254;6.702;2024-01-06T06:25:55;5.93;;;4.67;;
9950;SDS011;24074;49.254;6.702;2024-01-06T06:28:21;6.30;;;4.20;;
9950;SDS011;24074;49.254;6.702;2024-01-06T06:30:46;5.90;;;4.50;;
9950;SDS011;24074;49.254;6.702;2024-01-06T06:33:12;5.30;;;4.27;;
9950;SDS011;24074;49.254;6.702;2024-01-06T06:35:38;5.20;;;4.50;;
9950;SDS011;24074;49.254;6.702;2024-01-06T06:38:03;6.20;;;4.73;;
9950;SDS011;24074;49.254;6.702;2024-01-06T06:40:29;6.13;;;4.53;;
9950;SDS011;24074;49.254;6.702;2024-01-06T06:42:55;7.27;;;5.03;;
9950;SDS011;24074;49.254;6.702;2024-01-06T06:45:20;5.50;;;4.10;;
9950;SDS011;24074;49.254;6.702;2024-01-06T06:47:48;6.60;;;4.60;;
9950;SDS011;24074;49.254;6.702;2024-01-06T06:50:15;6.97;;;4.60;;
9950;SDS011;24074;49.254;6.702;2024-01-06T06:52:45;4.67;;;3.97;;
9950;SDS011;24074;49.254;6.702;2024-01-06T06:55:11;6.03;;;3.97;;
9950;SDS011;24074;49.254;6.702;2024-01-06T06:57:37;6.30;;;4.50;;
9950;SDS011;24074;49.254;6.702;2024-01-06T07:00:03;6.33;;;4.40;;
9950;SDS011;24074;49.254;6.702;2024-01-06T07:02:29;4.87;;;4.13;;
9950;SDS011;24074;49.254;6.702;2024-01-06T07:04:55;6.93;;;4.27;;
9950;SDS011;24074;49.254;6.702;2024-01-06T07:07:21;5.27;;;4.50;;
9950;SDS011;24074;49.254;6.702;2024-01-06T07:09:49;5.33;;;4.83;;
9950;SDS011;24074;49.254;6.702;2024-01-06T07:12:14;5.77;;;4.77;;
9950;SDS011;24074;49.254;6.702;2024-01-06T07:14:40;4.63;;;4.13;;
9950;SDS011;24074;49.254;6.702;2024-01-06T07:17:05;6.23;;;4.80;;
9950;SDS011;24074;49.254;6.702;2024-01-06T07:19:31;5.50;;;4.67;;
9950;SDS011;24074;49.254;6.702;2024-01-06T07:21:57;5.60;;;4.80;;
9950;SDS011;24074;49.254;6.702;2024-01-06T07:24:23;7.53;;;4.33;;
9950;SDS011;24074;49.254;6.702;2024-01-06T07:26:48;7.10;;;4.63;;
9950;SDS011;24074;49.254;6.702;2024-01-06T07:29:14;6.03;;;4.30;;
9950;SDS011;24074;49.254;6.702;2024-01-06T07:31:39;5.27;;;4.20;;
9950;SDS011;24074;49.254;6.702;2024-01-06T07:34:08;5.80;;;4.47;;
9950;SDS011;24074;49.254;6.702;2024-01-06T07:36:33;7.83;;;4.53;;
9950;SDS011;24074;49.254;6.702;2024-01-06T07:38:59;8.43;;;4.47;;
9950;SDS011;24074;49.254;6.702;2024-01-06T07:41:24;4.50;;;4.07;;
9950;SDS011;24074;49.254;6.702;2024-01-06T07:43:50;5.47;;;4.40;;
9950;SDS011;24074;49.254;6.702;2024-01-06T07:46:15;5.20;;;4.43;;
9950;SDS011;24074;49.254;6.702;2024-01-06T07:48:41;5.27;;;4.27;;
9950;SDS011;24074;49.254;6.702;2024-01-06T07:51:07;5.73;;;4.90;;
9950;SDS011;24074;49.254;6.702;2024-01-06T07:53:35;6.50;;;4.37;;
9950;SDS011;24074;49.254;6.702;2024-01-06T07:56:00;5.33;;;4.13;;
9950;SDS011;24074;49.254;6.702;2024-01-06T07:58:26;6.37;;;4.23;;
9950;SDS011;24074;49.254;6.702;2024-01-06T08:00:52;5.70;;;4.33;;
9950;SDS011;24074;49.254;6.702;2024-01-06T08:03:18;5.90;;;4.47;;
9950;SDS011;24074;49.254;6.702;2024-01-06T08:05:43;6.30;;;4.10;;
9950;SDS011;24074;49.254;6.702;2024-01-06T08:08:09;6.53;;;4.47;;
9950;SDS011;24074;49.254;6.702;2024-01-06T08:10:35;5.67;;;3.93;;
9950;SDS011;24074;49.254;6.702;2024-01-06T08:13:00;6.60;;;4.60;;
9950;SDS011;24074;49.254;6.702;2024-01-06T08:15:26;5.57;;;4.10;;
9950;SDS011;24074;49.254;6.702;2024-01-06T08:17:51;6.13;;;4.30;;
9950;SDS011;24074;49.254;6.702;2024-01-06T08:20:17;5.57;;;4.37;;
9950;SDS011;24074;49.254;6.702;2024-01-06T08:22:43;6.17;;;4.53;;
9950;SDS011;24074;49.254;6.702;2024-01-06T08:25:12;7.33;;;4.33;;
9950;SDS011;24074;49.254;6.702;2024-01-06T08:27:38;5.50;;;4.53;;
9950;SDS011;24074;49.254;6.702;2024-01-06T08:30:04;5.67;;;3.90;;
9950;SDS011;24074;49.254;6.702;2024-01-06T08:32:32;5.47;;;4.63;;
9950;SDS011;24074;49.254;6.702;2024-01-06T08:35:00;5.67;;;3.97;;
9950;SDS011;24074;49.254;6.702;2024-01-06T08:37:26;5.80;;;4.90;;
9950;SDS011;24074;49.254;6.702;2024-01-06T08:39:51;7.47;;;4.80;;
9950;SDS011;24074;49.254;6.702;2024-01-06T08:42:17;8.03;;;4.60;;
9950;SDS011;24074;49.254;6.702;2024-01-06T08:44:48;6.40;;;4.60;;
9950;SDS011;24074;49.254;6.702;2024-01-06T08:47:14;7.40;;;4.50;;
9950;SDS011;24074;49.254;6.702;2024-01-06T08:49:40;6.50;;;4.47;;
9950;SDS011;24074;49.254;6.702;2024-01-06T08:52:05;6.37;;;4.23;;
9950;SDS011;24074;49.254;6.702;2024-01-06T08:54:31;6.20;;;4.73;;
9950;SDS011;24074;49.254;6.702;2024-01-06T08:56:57;5.30;;;4.40;;
9950;SDS011;24074;49.254;6.702;2024-01-06T08:59:23;6.33;;;4.80;;
9950;SDS011;24074;49.254;6.702;2024-01-06T09:01:48;7.20;;;4.30;;
9950;SDS011;24074;49.254;6.702;2024-01-06T09:04:14;5.67;;;4.60;;
9950;SDS011;24074;49.254;6.702;2024-01-06T09:06:40;5.33;;;4.47;;
9950;SDS011;24074;49.254;6.702;2024-01-06T09:09:06;5.30;;;4.70;;
9950;SDS011;24074;49.254;6.702;2024-01-06T09:11:33;5.10;;;4.27;;
9950;SDS011;24074;49.254;6.702;2024-01-06T09:13:59;8.20;;;5.13;;
9950;SDS011;24074;49.254;6.702;2024-01-06T09:16:25;6.20;;;4.77;;
9950;SDS011;24074;49.254;6.702;2024-01-06T09:18:54;7.13;;;5.10;;
9950;SDS011;24074;49.254;6.702;2024-01-06T09:21:19;8.20;;;6.20;;
9950;SDS011;24074;49.254;6.702;2024-01-06T09:23:45;6.60;;;5.40;;
9950;SDS011;24074;49.254;6.702;2024-01-06T09:26:11;6.47;;;4.77;;
9950;SDS011;24074;49.254;6.702;2024-01-06T09:28:36;6.83;;;4.90;;
9950;SDS011;24074;49.254;6.702;2024-01-06T09:31:02;7.17;;;5.37;;
9950;SDS011;24074;49.254;6.702;2024-01-06T09:33:29;6.07;;;5.00;;
9950;SDS011;24074;49.254;6.702;2024-01-06T09:35:59;5.87;;;4.03;;
9950;SDS011;24074;49.254;6.702;2024-01-06T09:38:24;7.47;;;4.33;;
9950;SDS011;24074;49.254;6.702;2024-01-06T09:40:51;4.77;;;4.03;;
9950;SDS011;24074;49.254;6.702;2024-01-06T09:43:18;3.97;;;3.63;;
9950;SDS011;24074;49.254;6.702;2024-01-06T09:45:46;4.60;;;3.43;;
9950;SDS011;24074;49.254;6.702;2024-01-06T09:48:19;5.10;;;3.90;;
9950;SDS011;24074;49.254;6.702;2024-01-06T09:50:47;4.50;;;3.80;;
9950;SDS011;24074;49.254;6.702;2024-01-06T09:53:16;4.10;;;3.70;;
9950;SDS011;24074;49.254;6.702;2024-01-06T09:55:42;5.77;;;4.00;;
9950;SDS011;24074;49.254;6.702;2024-01-06T09:58:08;4.83;;;4.27;;
9950;SDS011;24074;49.254;6.702;2024-01-06T10:00:35;5.83;;;3.80;;
9950;SDS011;24074;49.254;6.702;2024-01-06T10:03:00;4.00;;;3.43;;
9950;SDS011;24074;49.254;6.702;2024-01-06T10:05:26;5.93;;;3.40;;
9950;SDS011;24074;49.254;6.702;2024-01-06T10:07:54;4.63;;;3.40;;
9950;SDS011;24074;49.254;6.702;2024-01-06T10:10:21;3.90;;;3.50;;
9950;SDS011;24074;49.254;6.702;2024-01-06T10:12:47;3.37;;;3.07;;
9950;SDS011;24074;49.254;6.702;2024-01-06T10:15:13;3.60;;;3.03;;
9950;SDS011;24074;49.254;6.702;2024-01-06T10:17:39;3.83;;;3.00;;
9950;SDS011;24074;49.254;6.702;2024-01-06T10:22:38;2.53;;;2.33;;
9950;SDS011;24074;49.254;6.702;2024-01-06T10:25:06;4.10;;;2.50;;
9950;SDS011;24074;49.254;6.702;2024-01-06T10:27:36;4.43;;;2.37;;
9950;SDS011;24074;49.254;6.702;2024-01-06T10:30:04;3.33;;;2.30;;
9950;SDS011;24074;49.254;6.702;2024-01-06T10:32:34;4.07;;;2.57;;
9950;SDS011;24074;49.254;6.702;2024-01-06T10:35:01;2.97;;;2.30;;
9950;SDS011;24074;49.254;6.702;2024-01-06T10:37:28;3.43;;;2.40;;
9950;SDS011;24074;49.254;6.702;2024-01-06T10:40:13;2.43;;;2.20;;
9950;SDS011;24074;49.254;6.702;2024-01-06T10:42:43;2.70;;;2.40;;
9950;SDS011;24074;49.254;6.702;2024-01-06T10:45:10;2.13;;;1.90;;
9950;SDS011;24074;49.254;6.702;2024-01-06T10:47:38;2.27;;;1.83;;
9950;SDS011;24074;49.254;6.702;2024-01-06T10:50:06;2.63;;;2.20;;
9950;SDS011;24074;49.254;6.702;2024-01-06T10:52:34;2.20;;;2.10;;
9950;SDS011;24074;49.254;6.702;2024-01-06T10:55:00;2.93;;;2.17;;
9950;SDS011;24074;49.254;6.702;2024-01-06T10:57:27;2.77;;;2.20;;
9950;SDS011;24074;49.254;6.702;2024-01-06T10:59:57;2.40;;;2.20;;
9950;SDS011;24074;49.254;6.702;2024-01-06T11:02:24;3.50;;;2.40;;
9950;SDS011;24074;49.254;6.702;2024-01-06T11:04:50;4.00;;;2.63;;
9950;SDS011;24074;49.254;6.702;2024-01-06T11:07:18;3.20;;;2.33;;
9950;SDS011;24074;49.254;6.702;2024-01-06T11:09:50;3.90;;;2.87;;
9950;SDS011;24074;49.254;6.702;2024-01-06T11:12:17;4.23;;;2.50;;
9950;SDS011;24074;49.254;6.702;2024-01-06T11:14:43;2.90;;;2.60;;
9950;SDS011;24074;49.254;6.702;2024-01-06T11:17:10;3.10;;;2.50;;
9950;SDS011;24074;49.254;6.702;2024-01-06T11:24:55;2.83;;;2.30;;
9950;SDS011;24074;49.254;6.702;2024-01-06T11:27:23;3.30;;;2.20;;
9950;SDS011;24074;49.254;6.702;2024-01-06T11:29:56;3.67;;;2.40;;
9950;SDS011;24074;49.254;6.702;2024-01-06T11:32:36;5.33;;;2.20;;
9950;SDS011;24074;49.254;6.702;2024-01-06T11:35:05;3.93;;;2.40;;
9950;SDS011;24074;49.254;6.702;2024-01-06T11:37:50;3.50;;;2.63;;
9950;SDS011;24074;49.254;6.702;2024-01-06T11:42:43;2.90;;;2.60;;
9950;SDS011;24074;49.254;6.702;2024-01-06T11:45:10;2.50;;;2.30;;
9950;SDS011;24074;49.254;6.702;2024-01-06T11:47:37;2.33;;;2.13;;
9950;SDS011;24074;49.254;6.702;2024-01-06T11:50:04;2.80;;;2.20;;
9950;SDS011;24074;49.254;6.702;2024-01-06T11:52:31;2.93;;;2.20;;
9950;SDS011;24074;49.254;6.702;2024-01-06T11:54:57;4.00;;;2.10;;
9950;SDS011;24074;49.254;6.702;2024-01-06T11:57:25;3.73;;;2.20;;
9950;SDS011;24074;49.254;6.702;2024-01-06T11:59:54;2.70;;;1.93;;
9950;SDS011;24074;49.254;6.702;2024-01-06T12:02:20;2.50;;;2.00;;
9950;SDS011;24074;49.254;6.702;2024-01-06T12:04:49;2.73;;;2.17;;
9950;SDS011;24074;49.254;6.702;2024-01-06T12:07:21;5.00;;;4.17;;
9950;SDS011;24074;49.254;6.702;2024-01-06T12:09:47;2.57;;;2.37;;
9950;SDS011;24074;49.254;6.702;2024-01-06T12:12:17;2.30;;;2.10;;
9950;SDS011;24074;49.254;6.702;2024-01-06T12:14:43;2.40;;;2.20;;
9950;SDS011;24074;49.254;6.702;2024-01-06T12:17:10;2.60;;;2.27;;
9950;SDS011;24074;49.254;6.702;2024-01-06T12:19:38;3.10;;;2.80;;
9950;SDS011;24074;49.254;6.702;2024-01-06T12:22:04;2.33;;;2.13;;
9950;SDS011;24074;49.254;6.702;2024-01-06T12:24:31;2.50;;;2.30;;
9950;SDS011;24074;49.254;6.702;2024-01-06T12:26:56;2.80;;;2.30;;
9950;SDS011;24074;49.254;6.702;2024-01-06T12:29:23;3.87;;;2.00;;
9950;SDS011;24074;49.254;6.702;2024-01-06T12:31:53;3.03;;;2.20;;
9950;SDS011;24074;49.254;6.702;2024-01-06T12:34:19;2.97;;;2.07;;
9950;SDS011;24074;49.254;6.702;2024-01-06T12:36:45;2.17;;;1.97;;
9950;SDS011;24074;49.254;6.702;2024-01-06T12:39:12;1.70;;;1.60;;
9950;SDS011;24074;49.254;6.702;2024-01-06T12:41:38;3.33;;;2.20;;
9950;SDS011;24074;49.254;6.702;2024-01-06T12:44:05;1.97;;;1.83;;
9950;SDS011;24074;49.254;6.702;2024-01-06T12:46:32;2.10;;;1.77;;
9950;SDS011;24074;49.254;6.702;2024-01-06T12:48:58;2.53;;;2.00;;
9950;SDS011;24074;49.254;6.702;2024-01-06T12:51:24;2.73;;;1.90;;
9950;SDS011;24074;49.254;6.702;2024-01-06T12:53:50;2.30;;;2.10;;
9950;SDS011;24074;49.254;6.702;2024-01-06T12:56:16;2.43;;;2.10;;
9950;SDS011;24074;49.254;6.702;2024-01-06T12:58:42;1.87;;;1.67;;
9950;SDS011;24074;49.254;6.702;2024-01-06T13:01:08;2.07;;;1.80;;
9950;SDS011;24074;49.254;6.702;2024-01-06T13:03:34;1.90;;;1.77;;
9950;SDS011;24074;49.254;6.702;2024-01-06T13:06:00;7.17;;;5.17;;
9950;SDS011;24074;49.254;6.702;2024-01-06T13:08:26;2.10;;;1.90;;
9950;SDS011;24074;49.254;6.702;2024-01-06T13:10:53;3.07;;;2.10;;
9950;SDS011;24074;49.254;6.702;2024-01-06T13:13:22;1.90;;;1.70;;
9950;SDS011;24074;49.254;6.702;2024-01-06T13:15:47;2.40;;;1.77;;
9950;SDS011;24074;49.254;6.702;2024-01-06T13:18:16;2.33;;;2.00;;
9950;SDS011;24074;49.254;6.702;2024-01-06T13:20:44;2.87;;;1.90;;
9950;SDS011;24074;49.254;6.702;2024-01-06T13:23:10;2.93;;;1.90;;
9950;SDS011;24074;49.254;6.702;2024-01-06T13:25:36;3.50;;;2.10;;
9950;SDS011;24074;49.254;6.702;2024-01-06T13:28:06;2.23;;;2.03;;
9950;SDS011;24074;49.254;6.702;2024-01-06T13:30:34;2.97;;;2.30;;
9950;SDS011;24074;49.254;6.702;2024-01-06T13:32:59;2.30;;;2.10;;
9950;SDS011;24074;49.254;6.702;2024-01-06T13:35:25;2.20;;;2.00;;
9950;SDS011;24074;49.254;6.702;2024-01-06T13:37:51;2.10;;;1.80;;
9950;SDS011;24074;49.254;6.702;2024-01-06T13:40:18;1.97;;;1.77;;
9950;SDS011;24074;49.254;6.702;2024-01-06T13:42:47;1.80;;;1.70;;
9950;SDS011;24074;49.254;6.702;2024-01-06T13:45:17;2.50;;;1.67;;
9950;SDS011;24074;49.254;6.702;2024-01-06T13:47:43;2.70;;;1.80;;
9950;SDS011;24074;49.254;6.702;2024-01-06T13:50:13;1.80;;;1.70;;
9950;SDS011;24074;49.254;6.702;2024-01-06T13:52:40;2.80;;;1.80;;
9950;SDS011;24074;49.254;6.702;2024-01-06T13:55:06;2.33;;;1.93;;
9950;SDS011;24074;49.254;6.702;2024-01-06T13:57:33;2.63;;;2.00;;
9950;SDS011;24074;49.254;6.702;2024-01-06T13:59:59;2.57;;;1.77;;
9950;SDS011;24074;49.254;6.702;2024-01-06T14:02:25;2.10;;;1.90;;
9950;SDS011;24074;49.254;6.702;2024-01-06T14:04:51;2.13;;;1.80;;
9950;SDS011;24074;49.254;6.702;2024-01-06T14:07:17;2.07;;;1.87;;
9950;SDS011;24074;49.254;6.702;2024-01-06T14:09:47;1.60;;;1.40;;
9950;SDS011;24074;49.254;6.702;2024-01-06T14:12:15;2.20;;;1.80;;
9950;SDS011;24074;49.254;6.702;2024-01-06T14:14:41;2.07;;;1.83;;
9950;SDS011;24074;49.254;6.702;2024-01-06T14:17:07;2.30;;;2.03;;
9950;SDS011;24074;49.254;6.702;2024-01-06T14:19:33;2.50;;;2.30;;
9950;SDS011;24074;49.254;6.702;2024-01-06T14:21:59;2.30;;;1.70;;
9950;SDS011;24074;49.254;6.702;2024-01-06T14:24:24;2.70;;;1.90;;
9950;SDS011;24074;49.254;6.702;2024-01-06T14:26:50;4.43;;;2.80;;
9950;SDS011;24074;49.254;6.702;2024-01-06T14:29:20;4.03;;;2.53;;
9950;SDS011;24074;49.254;6.702;2024-01-06T14:31:45;2.60;;;2.40;;
9950;SDS011;24074;49.254;6.702;2024-01-06T14:34:11;3.00;;;2.57;;
9950;SDS011;24074;49.254;6.702;2024-01-06T14:36:37;2.70;;;1.97;;
9950;SDS011;24074;49.254;6.702;2024-01-06T14:39:03;2.20;;;2.00;;
9950;SDS011;24074;49.254;6.702;2024-01-06T14:41:31;2.50;;;2.30;;
9950;SDS011;24074;49.254;6.702;2024-01-06T14:43:59;3.17;;;2.83;;
9950;SDS011;24074;49.254;6.702;2024-01-06T14:46:25;3.10;;;2.73;;
9950;SDS011;24074;49.254;6.702;2024-01-06T14:48:50;3.77;;;2.77;;
9950;SDS011;24074;49.254;6.702;2024-01-06T14:51:17;2.30;;;2.00;;
9950;SDS011;24074;49.254;6.702;2024-01-06T14:53:43;2.70;;;2.50;;
9950;SDS011;24074;49.254;6.702;2024-01-06T14:56:09;3.57;;;2.57;;
9950;SDS011;24074;49.254;6.702;2024-01-06T14:58:35;3.17;;;2.60;;
9950;SDS011;24074;49.254;6.702;2024-01-06T15:01:00;2.87;;;2.57;;
9950;SDS011;24074;49.254;6.702;2024-01-06T15:03:26;2.60;;;2.40;;
9950;SDS011;24074;49.254;6.702;2024-01-06T15:05:51;2.50;;;2.30;;